Mirage, Nebraska
Current Conditions -  °F | °C
As of 12:15 PM on Friday 19 Dec 2014 (Local Time) from KHDE Reporting Station
Haze Haze  
Wind Chill: 19°   Ceiling: 200
Heat Index: 28°   Visibility: 0.75mi
Dew Point: 27°   Wind: 9mph
Humidity: 96%   Direction: 210°SSW
Pressure: 30.11"   Gusts: NA
Location:  40.5474°N, 99.1227°W
Report Text: KHDE 191815Z AUTO 21008KT 3/4SM BR OVC002 M02/M03 A3011 RMK AO2 T10211027
Loading
Personal Weather Stations






























Interactive Weather Map New forecast layout! Learn more

10-Day Weather Forecast

Advertisements
Track Severe Weather on mobile